KBLF/BLF METAR and TAF weather

Enter ICAO airport designator
Station Type Date Time Source
KBLF METAR 2022/05/26 03:52 UTC NOAA

KBLF 260352Z AUTO VRB03KT 10SM OVC008 15/13 A3025 RMK AO2 SLP223 T01500133


Station Type Date Time Source
KBLF Decoded METAR 2022/05/26 03:52 UTC NOAA

BLUEFIELD MERCER COUNTY AIRPORT , WV, United States (KBLF) 37-18N 081-12W 873M
May 25, 2022 - 11:52 PM EDT / 2022.05.26 0352 UTC
Wind: Variable at 3 MPH (3 KT):0
Visibility: 10 mile(s):0
Sky conditions: overcast
Temperature: 59.0 F (15.0 C)
Dew Point: 55.9 F (13.3 C)
Relative Humidity: 89%
Pressure (altimeter): 30.25 in. Hg (1024 hPa)
ob: KBLF 260352Z AUTO VRB03KT 10SM OVC008 15/13 A3025 RMK AO2 SLP223 T01500133
cycle: 4

Station Type Date Time Source
KBLF TAF 2022/05/26 03:33 UTC NOAA

TAF
AMD KBLF 260230Z 2603/2624 14006KT P6SM OVC008
FM260600 14010KT P6SM OVC006
FM260900 17010G18KT P6SM OVC008
FM261400 16012G20KT P6SM BKN015
FM262000 15012G20KT P6SM VCSH OVC022

Example: see airport list